createdAt,value
2022-11-30T00:00:48.631Z,7.03
2022-11-30T00:03:34.019Z,7.83
2022-11-30T00:06:23.218Z,9.90
2022-11-30T00:09:08.508Z,7.93
2022-11-30T00:11:53.792Z,8.03
2022-11-30T00:14:39.049Z,7.70
2022-11-30T00:17:24.255Z,7.67
2022-11-30T00:20:10.787Z,7.63
2022-11-30T00:22:56.715Z,7.50
2022-11-30T00:25:42.399Z,6.83
2022-11-30T00:28:28.081Z,8.17
2022-11-30T00:31:16.087Z,8.10
2022-11-30T00:34:01.635Z,8.47
2022-11-30T00:36:46.940Z,8.70
2022-11-30T00:39:35.470Z,8.20
2022-11-30T00:42:21.145Z,7.33
2022-11-30T00:45:06.892Z,7.07
2022-11-30T00:47:52.114Z,7.73
2022-11-30T00:50:37.453Z,7.63
2022-11-30T00:53:22.719Z,7.43
2022-11-30T00:56:08.999Z,7.13
2022-11-30T00:58:54.187Z,6.53
2022-11-30T01:01:39.554Z,8.47
2022-11-30T01:04:24.988Z,7.73
2022-11-30T01:07:10.265Z,6.90
2022-11-30T01:09:55.484Z,7.00
2022-11-30T01:12:40.716Z,7.40
2022-11-30T01:15:26.002Z,7.23
2022-11-30T01:18:11.531Z,7.60
2022-11-30T01:20:57.043Z,7.33
2022-11-30T01:23:43.135Z,7.53
2022-11-30T01:26:28.286Z,8.13
2022-11-30T01:29:13.652Z,7.63
2022-11-30T01:31:58.852Z,6.33
2022-11-30T01:34:44.148Z,7.63
2022-11-30T01:37:32.633Z,7.73
2022-11-30T01:40:18.072Z,8.10
2022-11-30T01:43:03.247Z,7.80
2022-11-30T01:45:49.905Z,7.70
2022-11-30T01:48:35.405Z,8.93
2022-11-30T01:51:21.073Z,10.37
2022-11-30T01:54:09.874Z,8.63
2022-11-30T01:57:06.818Z,8.20
2022-11-30T01:59:54.797Z,7.47
2022-11-30T02:02:54.996Z,7.93
2022-11-30T02:05:41.723Z,7.10
2022-11-30T02:08:28.479Z,8.20
2022-11-30T02:11:15.582Z,6.90
2022-11-30T02:14:26.572Z,7.83
2022-11-30T02:17:32.748Z,6.93
2022-11-30T02:20:20.870Z,7.33
2022-11-30T02:23:18.827Z,8.50
2022-11-30T02:26:26.438Z,7.57
2022-11-30T02:29:27.117Z,8.63
2022-11-30T02:32:21.659Z,7.70
2022-11-30T02:35:09.355Z,6.90
2022-11-30T02:37:57.778Z,8.53
2022-11-30T02:40:43.195Z,7.17
2022-11-30T02:43:30.866Z,7.03
2022-11-30T02:46:31.417Z,7.57
2022-11-30T02:49:34.680Z,7.87
2022-11-30T02:55:11.380Z,7.53
2022-11-30T02:57:57.051Z,7.47
2022-11-30T03:00:42.390Z,7.97
2022-11-30T03:03:27.717Z,7.80
2022-11-30T03:06:12.995Z,8.10
2022-11-30T03:08:58.404Z,8.33
2022-11-30T03:11:43.821Z,8.10
2022-11-30T03:14:29.042Z,7.50
2022-11-30T03:17:14.462Z,7.30
2022-11-30T03:20:00.185Z,7.97
2022-11-30T03:22:45.608Z,7.13
2022-11-30T03:25:30.944Z,8.17
2022-11-30T03:28:16.128Z,8.03
2022-11-30T03:31:02.422Z,7.63
2022-11-30T03:33:48.146Z,6.87
2022-11-30T03:36:33.543Z,6.40
2022-11-30T03:39:18.867Z,6.10
2022-11-30T03:42:04.328Z,8.23
2022-11-30T03:44:49.833Z,8.43
2022-11-30T03:47:35.022Z,6.97
2022-11-30T03:50:20.338Z,6.43
2022-11-30T03:53:05.552Z,7.97
2022-11-30T03:55:55.819Z,6.47
2022-11-30T03:58:42.248Z,6.90
2022-11-30T04:01:28.136Z,7.53
2022-11-30T04:04:13.452Z,8.77
2022-11-30T04:06:59.910Z,6.07
2022-11-30T04:09:45.141Z,6.93
2022-11-30T04:12:30.584Z,7.07
2022-11-30T04:15:16.003Z,6.70
2022-11-30T04:18:01.337Z,6.60
2022-11-30T04:20:46.983Z,6.53
2022-11-30T04:23:35.900Z,6.73
2022-11-30T04:26:21.463Z,7.33
2022-11-30T04:29:06.593Z,9.73
2022-11-30T04:31:51.838Z,8.03
2022-11-30T04:34:37.267Z,7.97
2022-11-30T04:37:22.539Z,8.97
2022-11-30T04:40:08.811Z,8.53
2022-11-30T04:42:54.108Z,8.70
2022-11-30T04:45:39.836Z,7.90
2022-11-30T04:48:25.528Z,9.77
2022-11-30T04:51:10.893Z,7.30
2022-11-30T04:53:56.300Z,8.07
2022-11-30T04:56:41.717Z,7.67
2022-11-30T04:59:26.868Z,8.03
2022-11-30T05:02:12.299Z,8.17
2022-11-30T05:04:57.639Z,7.07
2022-11-30T05:07:43.197Z,7.77
2022-11-30T05:10:30.022Z,7.83
2022-11-30T05:13:15.293Z,8.43
2022-11-30T05:16:00.678Z,8.13
2022-11-30T05:18:46.299Z,11.07
2022-11-30T05:21:32.402Z,10.90
2022-11-30T05:24:17.924Z,12.27
2022-11-30T05:27:07.760Z,14.47
2022-11-30T05:29:58.597Z,11.47
2022-11-30T05:32:44.128Z,11.13
2022-11-30T05:35:29.464Z,10.03
2022-11-30T05:38:15.283Z,10.87
2022-11-30T05:41:02.980Z,13.20
2022-11-30T05:43:48.989Z,9.60
2022-11-30T05:46:39.647Z,9.07
2022-11-30T05:49:26.395Z,7.83
2022-11-30T05:52:11.863Z,8.67
2022-11-30T05:54:57.355Z,9.83
2022-11-30T05:57:42.917Z,11.20
2022-11-30T06:00:28.213Z,9.83
2022-11-30T06:03:13.619Z,11.27
2022-11-30T06:05:59.356Z,12.23
2022-11-30T06:08:45.833Z,15.47
2022-11-30T06:11:31.488Z,15.17
2022-11-30T06:14:17.119Z,11.93
2022-11-30T06:17:02.695Z,12.07
2022-11-30T06:19:48.242Z,14.23
2022-11-30T06:22:33.780Z,11.93
2022-11-30T06:25:19.640Z,12.40
2022-11-30T06:28:10.069Z,16.17
2022-11-30T06:31:02.340Z,11.77
2022-11-30T06:33:48.702Z,10.70
2022-11-30T06:36:36.197Z,14.50
2022-11-30T06:39:43.002Z,13.37
2022-11-30T06:42:30.171Z,15.20
2022-11-30T06:45:15.805Z,10.57
2022-11-30T06:48:01.813Z,11.20
2022-11-30T06:50:50.202Z,10.30
2022-11-30T06:53:36.376Z,10.80
2022-11-30T06:56:22.061Z,11.03
2022-11-30T06:59:07.846Z,10.53
2022-11-30T07:01:53.120Z,9.53
2022-11-30T07:04:38.599Z,9.13
2022-11-30T07:07:24.531Z,10.23
2022-11-30T07:10:10.145Z,8.43
2022-11-30T07:12:55.922Z,11.47
2022-11-30T07:15:42.856Z,9.10
2022-11-30T07:18:31.947Z,9.83
2022-11-30T07:21:17.729Z,10.07
2022-11-30T07:24:21.657Z,9.13
2022-11-30T07:27:07.007Z,8.07
2022-11-30T07:29:52.519Z,9.23
2022-11-30T07:32:37.714Z,10.53
2022-11-30T07:35:23.117Z,8.87
2022-11-30T07:38:10.021Z,8.90
2022-11-30T07:40:55.096Z,10.67
2022-11-30T07:43:41.043Z,8.93
2022-11-30T07:46:26.686Z,11.47
2022-11-30T07:49:12.084Z,10.27
2022-11-30T07:51:57.453Z,7.47
2022-11-30T07:54:42.585Z,11.20
2022-11-30T07:57:27.897Z,10.80
2022-11-30T08:00:13.705Z,8.60
2022-11-30T08:02:59.007Z,9.93
2022-11-30T08:05:44.388Z,8.93
2022-11-30T08:08:34.238Z,10.73
2022-11-30T08:11:22.056Z,9.03
2022-11-30T08:14:07.344Z,8.83
2022-11-30T08:16:52.608Z,8.40
2022-11-30T08:19:37.968Z,9.33
2022-11-30T08:22:23.303Z,9.87
2022-11-30T08:25:09.483Z,9.50
2022-11-30T08:27:54.667Z,8.23
2022-11-30T08:30:40.045Z,9.87
2022-11-30T08:33:29.372Z,11.03
2022-11-30T08:36:22.213Z,8.90
2022-11-30T08:39:10.832Z,9.60
2022-11-30T08:41:56.169Z,10.67
2022-11-30T08:44:41.368Z,10.17
2022-11-30T08:47:26.663Z,12.30
2022-11-30T08:50:11.962Z,8.10
2022-11-30T08:53:00.537Z,10.63
2022-11-30T08:56:04.370Z,10.30
2022-11-30T08:58:50.437Z,8.93
2022-11-30T09:01:35.783Z,9.40
2022-11-30T09:04:21.140Z,9.37
2022-11-30T09:07:06.259Z,9.60
2022-11-30T09:09:51.675Z,10.53
2022-11-30T09:12:38.586Z,8.87
2022-11-30T09:15:24.175Z,8.33
2022-11-30T09:18:09.612Z,9.03
2022-11-30T09:20:59.999Z,10.03
2022-11-30T09:23:46.152Z,9.47
2022-11-30T09:26:31.690Z,10.03
2022-11-30T09:29:17.250Z,8.93
2022-11-30T09:32:02.508Z,7.43
2022-11-30T09:34:50.611Z,9.30
2022-11-30T09:37:36.162Z,8.40
2022-11-30T09:40:24.042Z,8.10
2022-11-30T09:43:27.436Z,9.63
2022-11-30T09:46:13.404Z,9.23
2022-11-30T09:49:39.505Z,7.90
2022-11-30T09:52:35.780Z,9.67
2022-11-30T09:55:31.511Z,8.60
2022-11-30T09:58:27.975Z,9.00
2022-11-30T10:01:19.413Z,8.47
2022-11-30T10:04:04.818Z,7.27
2022-11-30T10:07:27.738Z,9.97
2022-11-30T10:10:31.568Z,7.70
2022-11-30T10:13:55.199Z,8.17
2022-11-30T10:16:43.505Z,9.20
2022-11-30T10:20:04.292Z,7.50
2022-11-30T10:23:20.680Z,7.90
2022-11-30T10:26:16.219Z,10.30
2022-11-30T10:29:27.199Z,9.83
2022-11-30T10:32:19.771Z,7.77
2022-11-30T10:35:33.579Z,8.70
2022-11-30T10:38:41.999Z,7.03
2022-11-30T10:41:48.879Z,8.43
2022-11-30T10:44:40.028Z,9.40
2022-11-30T10:47:28.634Z,10.27
2022-11-30T10:50:15.843Z,9.40
2022-11-30T10:53:02.197Z,8.23
2022-11-30T10:56:00.620Z,8.23
2022-11-30T10:59:04.536Z,9.23
2022-11-30T11:04:35.893Z,7.83
2022-11-30T11:07:21.309Z,10.63
2022-11-30T11:10:16.447Z,9.37
2022-11-30T11:13:02.901Z,8.07
2022-11-30T11:16:00.724Z,11.10
2022-11-30T11:18:57.318Z,8.10
2022-11-30T11:21:49.148Z,8.33
2022-11-30T11:24:35.469Z,9.10
2022-11-30T11:27:30.827Z,9.60
2022-11-30T11:30:29.679Z,8.87
2022-11-30T11:33:15.141Z,8.30
2022-11-30T11:36:06.371Z,9.23
2022-11-30T11:38:51.990Z,9.40
2022-11-30T11:41:38.873Z,9.77
2022-11-30T11:44:28.020Z,13.00
2022-11-30T11:47:25.509Z,9.67
2022-11-30T11:51:05.643Z,8.83
2022-11-30T11:53:54.041Z,9.70
2022-11-30T11:56:40.073Z,7.55
2022-11-30T11:59:47.557Z,8.53
2022-11-30T12:02:52.203Z,9.90
2022-11-30T12:05:45.541Z,9.07
2022-11-30T12:08:38.430Z,9.65
2022-11-30T12:11:30.006Z,8.82
2022-11-30T12:14:17.611Z,9.80
2022-11-30T12:17:06.424Z,8.13
2022-11-30T12:20:18.348Z,8.37
2022-11-30T12:23:52.287Z,8.43
2022-11-30T12:27:09.895Z,7.97
2022-11-30T12:30:02.308Z,11.27
2022-11-30T12:32:59.609Z,10.03
2022-11-30T12:35:56.932Z,8.27
2022-11-30T12:39:19.859Z,7.87
2022-11-30T12:42:14.657Z,7.47
2022-11-30T12:45:19.299Z,8.17
2022-11-30T12:48:22.848Z,8.00
2022-11-30T12:51:08.307Z,7.75
2022-11-30T12:54:02.754Z,9.33
2022-11-30T12:56:55.073Z,7.17
2022-11-30T12:59:49.518Z,8.10
2022-11-30T13:03:08.198Z,7.93
2022-11-30T13:06:01.147Z,7.67
2022-11-30T13:08:55.081Z,8.77
2022-11-30T13:14:30.870Z,7.23
2022-11-30T13:17:19.203Z,8.20
2022-11-30T13:20:28.770Z,9.10
2022-11-30T13:23:35.963Z,7.27
2022-11-30T13:26:45.074Z,7.97
2022-11-30T13:29:56.077Z,7.90
2022-11-30T13:32:58.592Z,8.90
2022-11-30T13:35:54.135Z,8.90
2022-11-30T13:38:39.456Z,10.60
2022-11-30T13:41:25.241Z,14.00
2022-11-30T13:44:29.576Z,9.23
2022-11-30T13:47:27.795Z,8.90
2022-11-30T13:50:26.726Z,10.33
2022-11-30T13:53:28.798Z,8.63
2022-11-30T13:56:34.895Z,8.77
2022-11-30T13:59:23.473Z,10.60
2022-11-30T14:02:34.093Z,15.30
2022-11-30T14:05:38.102Z,11.70
2022-11-30T14:08:23.970Z,9.77
2022-11-30T14:11:34.375Z,9.20
2022-11-30T14:14:45.759Z,9.03
2022-11-30T14:17:35.198Z,8.43
2022-11-30T14:20:37.719Z,8.57
2022-11-30T14:23:47.107Z,9.40
2022-11-30T14:26:40.174Z,12.47
2022-11-30T14:29:34.823Z,9.23
2022-11-30T14:32:30.291Z,10.43
2022-11-30T14:35:18.393Z,13.03
2022-11-30T14:38:16.374Z,12.37
2022-11-30T14:41:01.611Z,12.93
2022-11-30T14:43:59.140Z,10.67
2022-11-30T14:46:44.568Z,12.93
2022-11-30T14:49:30.405Z,11.67
2022-11-30T14:52:31.252Z,13.27
2022-11-30T14:55:26.490Z,11.80
2022-11-30T14:58:23.901Z,10.90
2022-11-30T15:01:23.979Z,9.73
2022-11-30T15:04:17.640Z,8.40
2022-11-30T15:07:03.300Z,9.57
2022-11-30T15:09:51.941Z,10.17
2022-11-30T15:12:40.551Z,11.23
2022-11-30T15:15:28.071Z,9.87
2022-11-30T15:18:19.645Z,8.73
2022-11-30T15:21:17.330Z,11.60
2022-11-30T15:24:03.100Z,11.20
2022-11-30T15:27:04.310Z,10.70
2022-11-30T15:32:49.873Z,10.80
2022-11-30T15:35:57.359Z,11.65
2022-11-30T15:38:41.808Z,12.17
2022-11-30T15:41:27.424Z,11.93
2022-11-30T15:44:36.533Z,12.27
2022-11-30T15:47:48.979Z,9.83
2022-11-30T15:50:39.549Z,10.67
2022-11-30T15:53:47.219Z,18.90
2022-11-30T15:56:32.661Z,11.13
2022-11-30T15:59:25.654Z,11.53
2022-11-30T16:02:43.753Z,10.50
2022-11-30T16:05:28.992Z,14.30
2022-11-30T16:08:17.942Z,17.27
2022-11-30T16:11:08.078Z,15.97
2022-11-30T16:13:53.548Z,24.80
2022-11-30T16:16:38.955Z,31.30
2022-11-30T16:19:24.245Z,43.50
2022-11-30T16:22:12.793Z,58.97
2022-11-30T16:24:58.229Z,64.03
2022-11-30T16:27:43.973Z,69.53
2022-11-30T16:30:30.547Z,69.33
2022-11-30T16:33:18.990Z,77.87
2022-11-30T16:36:09.099Z,66.37
2022-11-30T16:38:54.929Z,68.37
2022-11-30T16:41:40.737Z,66.47
2022-11-30T16:44:26.073Z,60.80
2022-11-30T16:47:11.340Z,61.07
2022-11-30T16:49:56.756Z,51.40
2022-11-30T16:52:42.890Z,52.30
2022-11-30T16:55:35.018Z,54.17
2022-11-30T16:58:20.297Z,52.70
2022-11-30T17:01:07.523Z,45.10
2022-11-30T17:03:53.213Z,48.87
2022-11-30T17:06:38.473Z,47.43
2022-11-30T17:09:23.740Z,45.23
2022-11-30T17:12:09.523Z,44.23
2022-11-30T17:14:54.723Z,47.97
2022-11-30T17:17:40.202Z,45.97
2022-11-30T17:20:27.096Z,28.20
2022-11-30T17:23:12.859Z,35.27
2022-11-30T17:25:58.177Z,38.60
2022-11-30T17:28:43.699Z,33.57
2022-11-30T17:31:29.743Z,31.87
2022-11-30T17:34:15.301Z,42.33
2022-11-30T17:37:00.649Z,30.40
2022-11-30T17:39:45.891Z,30.77
2022-11-30T17:42:31.147Z,33.67
2022-11-30T17:45:16.569Z,24.60
2022-11-30T17:48:01.743Z,27.17
2022-11-30T17:50:52.336Z,28.53
2022-11-30T17:53:42.247Z,28.57
2022-11-30T17:56:27.829Z,27.30
2022-11-30T17:59:13.351Z,23.67
2022-11-30T18:01:59.001Z,23.13
2022-11-30T18:04:44.414Z,20.83
2022-11-30T18:07:30.206Z,23.57
2022-11-30T18:10:16.287Z,23.67
2022-11-30T18:13:01.422Z,22.57
2022-11-30T18:15:47.463Z,27.10
2022-11-30T18:18:33.367Z,22.20
2022-11-30T18:21:21.470Z,21.90
2022-11-30T18:24:07.667Z,25.07
2022-11-30T18:26:53.537Z,30.83
2022-11-30T18:29:38.800Z,28.20
2022-11-30T18:32:24.105Z,21.77
2022-11-30T18:35:10.065Z,21.60
2022-11-30T18:37:55.909Z,20.80
2022-11-30T18:40:42.158Z,21.03
2022-11-30T18:43:27.977Z,21.80
2022-11-30T18:46:14.422Z,19.97
2022-11-30T18:49:01.191Z,23.03
2022-11-30T18:51:46.462Z,22.63
2022-11-30T18:54:33.242Z,21.57
2022-11-30T18:57:18.689Z,17.57
2022-11-30T19:00:05.632Z,16.90
2022-11-30T19:02:51.287Z,20.57
2022-11-30T19:05:39.677Z,19.80
2022-11-30T19:08:25.245Z,18.23
2022-11-30T19:11:10.693Z,17.80
2022-11-30T19:13:57.452Z,15.33
2022-11-30T19:16:43.753Z,14.30
2022-11-30T19:19:29.049Z,19.50
2022-11-30T19:22:14.256Z,17.30
2022-11-30T19:24:59.792Z,17.53
2022-11-30T19:27:45.149Z,16.60
2022-11-30T19:30:30.550Z,15.33
2022-11-30T19:33:15.761Z,16.53
2022-11-30T19:36:02.144Z,16.80
2022-11-30T19:38:47.870Z,16.17
2022-11-30T19:41:33.229Z,19.63
2022-11-30T19:44:18.552Z,16.63
2022-11-30T19:47:03.752Z,15.87
2022-11-30T19:49:48.977Z,17.43
2022-11-30T19:52:34.375Z,17.03
2022-11-30T19:55:19.629Z,18.70
2022-11-30T19:58:04.877Z,15.37
2022-11-30T20:00:50.117Z,15.17
2022-11-30T20:03:35.663Z,13.80
2022-11-30T20:06:25.173Z,13.37
2022-11-30T20:09:11.293Z,15.37
2022-11-30T20:11:57.192Z,16.07
2022-11-30T20:14:42.472Z,12.17
2022-11-30T20:17:27.751Z,15.03
2022-11-30T20:20:13.786Z,11.87
2022-11-30T20:22:59.165Z,16.87
2022-11-30T20:25:44.668Z,16.73
2022-11-30T20:28:29.997Z,14.27
2022-11-30T20:31:17.581Z,13.47
2022-11-30T20:34:03.665Z,13.47
2022-11-30T20:36:48.904Z,17.00
2022-11-30T20:39:34.160Z,13.53
2022-11-30T20:42:19.480Z,15.40
2022-11-30T20:45:05.120Z,15.43
2022-11-30T20:47:50.564Z,12.07
2022-11-30T20:50:36.178Z,11.17
2022-11-30T20:53:21.587Z,12.97
2022-11-30T20:56:08.943Z,13.83
2022-11-30T20:58:54.004Z,12.50
2022-11-30T21:01:44.633Z,12.70
2022-11-30T21:04:30.214Z,15.27
2022-11-30T21:07:16.279Z,15.27
2022-11-30T21:10:01.844Z,14.80
2022-11-30T21:12:47.115Z,13.57
2022-11-30T21:15:32.512Z,13.53
2022-11-30T21:18:17.770Z,14.07
2022-11-30T21:21:07.917Z,15.10
2022-11-30T21:23:53.608Z,14.37
2022-11-30T21:26:41.509Z,15.27
2022-11-30T21:29:27.088Z,13.23
2022-11-30T21:32:12.765Z,15.57
2022-11-30T21:34:58.027Z,13.93
2022-11-30T21:37:43.366Z,13.70
2022-11-30T21:40:28.602Z,14.73
2022-11-30T21:43:13.862Z,15.57
2022-11-30T21:46:11.690Z,13.77
2022-11-30T21:48:57.435Z,14.37
2022-11-30T21:51:43.919Z,13.60
2022-11-30T21:54:29.414Z,16.70
2022-11-30T21:57:14.564Z,14.93
2022-11-30T21:59:59.824Z,14.87
2022-11-30T22:02:45.835Z,16.53
2022-11-30T22:05:31.013Z,14.73
2022-11-30T22:08:16.432Z,16.73
2022-11-30T22:11:04.165Z,14.53
2022-11-30T22:13:51.231Z,14.83
2022-11-30T22:16:37.014Z,15.30
2022-11-30T22:19:22.783Z,14.47
2022-11-30T22:22:08.075Z,15.77
2022-11-30T22:24:55.273Z,14.23
2022-11-30T22:27:40.441Z,18.33
2022-11-30T22:30:25.712Z,15.53
2022-11-30T22:33:11.062Z,16.50
2022-11-30T22:35:56.396Z,17.37
2022-11-30T22:38:42.199Z,15.00
2022-11-30T22:41:28.493Z,16.13
2022-11-30T22:44:15.969Z,16.37
2022-11-30T22:47:01.313Z,15.47
2022-11-30T22:49:46.806Z,15.43
2022-11-30T22:53:01.336Z,16.50
2022-11-30T22:55:37.959Z,16.63
2022-11-30T22:58:23.094Z,17.93
2022-11-30T23:01:10.652Z,16.97
2022-11-30T23:04:01.252Z,17.43
2022-11-30T23:06:48.228Z,16.27
2022-11-30T23:09:33.722Z,19.67
2022-11-30T23:12:36.096Z,16.17
2022-11-30T23:15:24.593Z,15.87
2022-11-30T23:18:09.975Z,18.07
2022-11-30T23:20:56.209Z,15.57
2022-11-30T23:23:43.140Z,15.40
2022-11-30T23:26:31.298Z,15.93
2022-11-30T23:29:17.742Z,17.00
2022-11-30T23:32:03.343Z,17.00
2022-11-30T23:34:50.751Z,15.77
2022-11-30T23:37:36.621Z,17.37
2022-11-30T23:40:21.771Z,16.80
2022-11-30T23:43:07.191Z,17.33
2022-11-30T23:45:52.404Z,16.53
2022-11-30T23:48:38.319Z,18.40
2022-11-30T23:51:23.900Z,16.60
2022-11-30T23:54:09.325Z,17.00
2022-11-30T23:56:54.872Z,16.97
2022-11-30T23:59:40.084Z,16.00
